createdAt,value
2023-03-23T16:03:01.998Z,47.70
2023-03-23T16:08:23.899Z,47.60
2023-03-23T16:13:45.925Z,48.02
2023-03-23T16:19:11.094Z,48.24
2023-03-23T16:24:32.786Z,48.19
2023-03-23T16:30:04.020Z,48.66
2023-03-23T16:35:26.257Z,48.55
2023-03-23T16:40:47.934Z,48.86
2023-03-23T16:46:12.049Z,49.75
2023-03-23T16:51:33.827Z,49.66
2023-03-23T16:56:55.618Z,50.14
2023-03-23T17:02:17.507Z,50.18
2023-03-23T17:07:40.826Z,50.64
2023-03-23T17:13:02.534Z,50.55
2023-03-23T17:18:25.286Z,51.28
2023-03-23T17:23:46.998Z,50.75
2023-03-23T17:29:09.000Z,51.41
2023-03-23T17:34:31.176Z,52.15
2023-03-23T17:39:52.974Z,51.79
2023-03-23T17:45:14.671Z,51.70
2023-03-23T17:50:36.487Z,51.47
2023-03-23T17:55:59.246Z,52.00
2023-03-23T18:01:21.099Z,52.74
2023-03-23T18:06:43.452Z,52.87
2023-03-23T18:12:05.609Z,53.68
2023-03-23T18:17:27.432Z,53.55
2023-03-23T18:22:49.364Z,53.03
2023-03-23T18:28:11.207Z,52.92
2023-03-23T18:33:34.345Z,53.31
2023-03-23T18:38:57.353Z,54.43
2023-03-23T18:44:19.056Z,53.77
2023-03-23T18:49:41.010Z,53.61
2023-03-23T18:55:02.980Z,54.67
2023-03-23T19:00:24.781Z,54.74
2023-03-23T19:05:46.923Z,54.51
2023-03-23T19:11:09.135Z,54.61
2023-03-23T19:16:35.365Z,54.39
2023-03-23T19:21:57.133Z,54.54
2023-03-23T19:27:20.991Z,53.96
2023-03-23T19:32:43.023Z,53.94
2023-03-23T19:38:04.962Z,54.47
2023-03-23T19:43:27.673Z,54.20
2023-03-23T19:48:50.289Z,55.10
2023-03-23T19:54:13.019Z,55.73
2023-03-23T19:59:35.362Z,56.38
2023-03-23T20:04:57.351Z,56.01
2023-03-23T20:10:23.065Z,56.07
2023-03-23T20:15:51.304Z,56.47
2023-03-23T20:21:18.901Z,56.49
2023-03-23T20:26:43.638Z,57.08
2023-03-23T20:32:07.382Z,56.90
2023-03-23T20:37:31.180Z,57.17
2023-03-23T20:42:54.487Z,57.68
2023-03-23T20:48:16.789Z,57.23
2023-03-23T20:53:39.543Z,57.74
2023-03-23T20:59:02.409Z,57.86
2023-03-23T21:04:27.334Z,58.29
2023-03-23T21:09:49.734Z,58.25
2023-03-23T21:15:12.467Z,59.19
2023-03-23T21:20:34.996Z,58.64
2023-03-23T21:26:02.343Z,58.43
2023-03-23T21:31:25.408Z,58.83
2023-03-23T21:36:47.149Z,58.70
2023-03-23T21:42:09.020Z,59.18
2023-03-23T21:47:31.009Z,59.21
2023-03-23T21:52:53.910Z,59.54
2023-03-23T21:58:16.076Z,59.81
2023-03-23T22:03:38.882Z,58.54
2023-03-23T22:09:02.192Z,58.89
2023-03-23T22:14:24.149Z,58.70
2023-03-23T22:19:45.998Z,58.67
2023-03-23T22:25:08.567Z,59.00
2023-03-23T22:30:32.887Z,59.82
2023-03-23T22:35:54.601Z,59.88
2023-03-23T22:41:23.087Z,59.86
2023-03-23T22:46:45.790Z,59.09
2023-03-23T22:52:07.485Z,60.02
2023-03-23T22:57:30.554Z,60.87
2023-03-23T23:02:52.299Z,61.24
2023-03-23T23:08:16.621Z,61.06
2023-03-23T23:13:40.956Z,61.58
2023-03-23T23:19:03.128Z,62.02
2023-03-23T23:24:26.456Z,62.61
2023-03-23T23:29:48.229Z,62.22
2023-03-23T23:35:13.406Z,62.50
2023-03-23T23:40:35.352Z,62.10
2023-03-23T23:45:57.219Z,65.40
2023-03-23T23:51:19.385Z,69.61
2023-03-23T23:56:41.291Z,70.40
